Time;durP1;ratioP1;P1;durP2;ratioP2;P2;SDS_P1;SDS_P2;PMS_P1;PMS_P2;Temp;Humidity;BMP_temperature;BMP_pressure;BME280_temperature;BME280_humidity;BME280_pressure;Samples;Min_cycle;Max_cycle;Signal;HPM_P1;HPM_P2
2021/05/12 00:01:19;;;;;;;;;;;;;;;;;;5047920;28;20040;-69
2021/05/12 00:03:46;;;;;;;;;;;;;;;;;;5042671;28;20016;-69
2021/05/12 00:06:12;;;;;;;;;;;;;;;;;;5048087;28;19931;-69
2021/05/12 00:08:39;;;;;;;;;;;;;;;;;;5045031;28;20093;-69
2021/05/12 00:11:05;;;;;;;;;;;;;;;;;;5045495;28;19970;-67
2021/05/12 00:13:32;;;;;;;;;;;;;;;;;;5048761;28;20499;-68
2021/05/12 00:15:58;;;;;;;;;;;;;;;;;;5049595;28;19929;-69
2021/05/12 00:18:27;;;;;;;;;;;;;;;;;;5041868;28;19975;-69
2021/05/12 00:20:54;;;;;;;;;;;;;;;;;;5048322;28;19979;-68
2021/05/12 00:23:23;;;;;;;;;;;;;;;;;;5048534;28;19924;-69
2021/05/12 00:25:50;;;;;;;;;;;;;;;;;;5048201;28;20311;-68
2021/05/12 00:28:16;;;;;;;;;;;;;;;;;;5045965;28;19925;-69
2021/05/12 00:30:43;;;;;;;;;;;;;;;;;;5047694;28;20646;-69
2021/05/12 00:33:11;;;;;;;;;;;;;;;;;;5048743;28;20008;-68
2021/05/12 00:35:37;;;;;;;;;;;;;;;;;;5043664;28;19924;-69
2021/05/12 00:38:04;;;;;;;;;;;;;;;;;;5049024;28;19936;-69
2021/05/12 00:40:31;;;;;;;;;;;;;;;;;;5046373;28;20404;-69
2021/05/12 00:42:58;;;;;;;;;;;;;;;;;;5083886;22;20469;-71
2021/05/12 00:45:25;;;;;;;;;;;;;;;;;;5079964;28;19931;-70
2021/05/12 00:47:51;;;;;;;;;;;;;;;;;;5077856;28;20392;-70
2021/05/12 00:50:18;;;;;;;;;;;;;;;;;;5075395;28;19955;-70
2021/05/12 00:52:44;;;;;;;;;;;;;;;;;;5071539;28;20011;-70
2021/05/12 00:55:11;;;;;;;;;;;;;;;;;;5062428;28;19992;-70
2021/05/12 00:57:37;;;;;;;;;;;;;;;;;;5062809;28;20122;-69
2021/05/12 01:00:04;;;;;;;;;;;;;;;;;;5065582;28;20007;-70
2021/05/12 01:02:32;;;;;;;;;;;;;;;;;;5063607;28;20328;-69
2021/05/12 01:04:59;;;;;;;;;;;;;;;;;;5062331;28;20031;-68
2021/05/12 01:07:25;;;;;;;;;;;;;;;;;;5065797;28;20476;-69
2021/05/12 01:09:52;;;;;;;;;;;;;;;;;;5067616;28;19968;-69
2021/05/12 01:12:18;;;;;;;;;;;;;;;;;;5061694;28;19925;-69
2021/05/12 01:14:45;;;;;;;;;;;;;;;;;;5060079;28;21967;-69
2021/05/12 01:17:12;;;;;;;;;;;;;;;;;;5060654;28;20032;-70
2021/05/12 01:19:39;;;;;;;;;;;;;;;;;;5067566;28;19931;-68
2021/05/12 01:22:05;;;;;;;;;;;;;;;;;;5067002;28;19932;-70
2021/05/12 01:24:32;;;;;;;;;;;;;;;;;;5068596;28;19931;-70
2021/05/12 01:26:58;;;;;;;;;;;;;;;;;;5067971;28;20031;-69
2021/05/12 01:29:25;;;;;;;;;;;;;;;;;;5068017;28;20471;-69
2021/05/12 01:31:51;;;;;;;;;;;;;;;;;;5060527;28;19925;-69
2021/05/12 01:34:18;;;;;;;;;;;;;;;;;;5063642;28;19932;-69
2021/05/12 01:36:45;;;;;;;;;;;;;;;;;;5067377;28;20019;-68
2021/05/12 01:39:12;;;;;;;;;;;;;;;;;;5066755;28;19929;-69
2021/05/12 01:41:38;;;;;;;;;;;;;;;;;;5060195;28;19935;-69
2021/05/12 01:44:08;;;;;;;;;;;;;;;;;;5063370;28;20036;-69
2021/05/12 01:46:34;;;;;;;;;;;;;;;;;;5068819;28;19925;-69
2021/05/12 01:49:02;;;;;;;;;;;;;;;;;;5059983;28;19946;-69
2021/05/12 01:51:28;;;;;;;;;;;;;;;;;;5068944;28;19925;-69
2021/05/12 01:53:55;;;;;;;;;;;;;;;;;;5072441;28;20030;-69
2021/05/12 01:56:21;;;;;;;;;;;;;;;;;;5074483;28;19928;-69
2021/05/12 01:58:48;;;;;;;;;;;;;;;;;;5079596;28;19992;-70
2021/05/12 02:01:14;;;;;;;;;;;;;;;;;;5072503;28;19934;-70
2021/05/12 02:03:41;;;;;;;;;;;;;;;;;;5061207;28;19964;-70
2021/05/12 02:06:07;;;;;;;;;;;;;;;;;;5072200;28;20027;-68
2021/05/12 02:08:34;;;;;;;;;;;;;;;;;;5075507;28;20027;-69
2021/05/12 02:11:00;;;;;;;;;;;;;;;;;;5074741;28;19987;-70
2021/05/12 02:13:29;;;;;;;;;;;;;;;;;;5079961;28;19992;-69
2021/05/12 02:15:55;;;;;;;;;;;;;;;;;;5073857;28;20023;-70
2021/05/12 02:18:22;;;;;;;;;;;;;;;;;;5067313;28;20033;-69
2021/05/12 02:20:48;;;;;;;;;;;;;;;;;;5056588;28;19931;-70
2021/05/12 02:23:15;;;;;;;;;;;;;;;;;;5071265;28;19973;-69
2021/05/12 02:25:41;;;;;;;;;;;;;;;;;;5070330;28;20013;-71
2021/05/12 02:28:08;;;;;;;;;;;;;;;;;;5065088;28;19952;-70
2021/05/12 02:30:34;;;;;;;;;;;;;;;;;;5068364;28;20384;-69
2021/05/12 02:33:01;;;;;;;;;;;;;;;;;;5071293;28;20031;-69
2021/05/12 02:35:27;;;;;;;;;;;;;;;;;;5069033;28;19925;-69
2021/05/12 02:37:54;;;;;;;;;;;;;;;;;;5070258;28;20455;-68
2021/05/12 02:40:20;;;;;;;;;;;;;;;;;;5069686;28;19924;-69
2021/05/12 02:42:47;;;;;;;;;;;;;;;;;;5069715;28;19925;-69
2021/05/12 02:45:13;;;;;;;;;;;;;;;;;;5070246;28;19925;-68
2021/05/12 02:47:40;;;;;;;;;;;;;;;;;;5069607;28;20320;-68
2021/05/12 02:50:06;;;;;;;;;;;;;;;;;;5071133;28;19955;-68
2021/05/12 02:52:33;;;;;;;;;;;;;;;;;;5071189;28;19924;-68
2021/05/12 02:54:59;;;;;;;;;;;;;;;;;;5067203;28;20384;-69
2021/05/12 02:57:26;;;;;;;;;;;;;;;;;;5068128;28;19932;-68
2021/05/12 02:59:52;;;;;;;;;;;;;;;;;;5070822;28;20022;-69
2021/05/12 03:02:19;;;;;;;;;;;;;;;;;;5068206;28;19992;-69
2021/05/12 03:04:45;;;;;;;;;;;;;;;;;;5068165;28;19932;-69
2021/05/12 03:07:12;;;;;;;;;;;;;;;;;;5070122;28;20249;-70
2021/05/12 03:09:38;;;;;;;;;;;;;;;;;;5070977;28;19935;-68
2021/05/12 03:12:05;;;;;;;;;;;;;;;;;;5070020;28;19924;-70
2021/05/12 03:14:31;;;;;;;;;;;;;;;;;;5067873;28;19924;-70
2021/05/12 03:16:58;;;;;;;;;;;;;;;;;;5070352;28;19933;-69
2021/05/12 03:19:26;;;;;;;;;;;;;;;;;;5063440;28;20016;-69
2021/05/12 03:21:53;;;;;;;;;;;;;;;;;;5061200;28;19924;-70
2021/05/12 03:24:19;;;;;;;;;;;;;;;;;;5067728;28;19964;-69
2021/05/12 03:26:46;;;;;;;;;;;;;;;;;;5066746;28;19931;-69
2021/05/12 03:29:12;;;;;;;;;;;;;;;;;;5065566;28;19951;-69
2021/05/12 03:31:39;;;;;;;;;;;;;;;;;;5066155;28;19932;-70
2021/05/12 03:34:05;;;;;;;;;;;;;;;;;;5069059;28;19936;-69
2021/05/12 03:36:32;;;;;;;;;;;;;;;;;;5070072;28;19939;-70
2021/05/12 03:38:58;;;;;;;;;;;;;;;;;;5063846;28;19924;-69
2021/05/12 03:41:25;;;;;;;;;;;;;;;;;;5063788;28;19931;-69
2021/05/12 03:43:51;;;;;;;;;;;;;;;;;;5069812;28;19947;-69
2021/05/12 03:46:18;;;;;;;;;;;;;;;;;;5063201;28;19967;-68
2021/05/12 03:48:44;;;;;;;;;;;;;;;;;;5068365;28;19924;-68
2021/05/12 03:51:11;;;;;;;;;;;;;;;;;;5067288;28;19931;-69
2021/05/12 03:53:37;;;;;;;;;;;;;;;;;;5074429;28;19924;-70
2021/05/12 03:56:04;;;;;;;;;;;;;;;;;;5068483;28;19924;-70
2021/05/12 03:58:30;;;;;;;;;;;;;;;;;;5066881;28;19929;-69
2021/05/12 04:00:57;;;;;;;;;;;;;;;;;;5066691;28;20019;-69
2021/05/12 04:03:23;;;;;;;;;;;;;;;;;;5064486;28;19924;-70
2021/05/12 04:05:50;;;;;;;;;;;;;;;;;;5065217;28;19928;-70
2021/05/12 04:08:16;;;;;;;;;;;;;;;;;;5068201;28;19930;-70
2021/05/12 04:10:43;;;;;;;;;;;;;;;;;;5072174;28;19960;-70
2021/05/12 04:13:09;;;;;;;;;;;;;;;;;;5082973;28;19996;-70
2021/05/12 04:15:36;;;;;;;;;;;;;;;;;;5082163;28;19924;-69
2021/05/12 04:18:02;;;;;;;;;;;;;;;;;;5080636;28;19954;-68
2021/05/12 04:20:29;;;;;;;;;;;;;;;;;;5079604;28;19928;-69
2021/05/12 04:22:55;;;;;;;;;;;;;;;;;;5068877;28;19924;-69
2021/05/12 04:25:23;;;;;;;;;;;;;;;;;;5066030;28;20285;-69
2021/05/12 04:27:50;;;;;;;;;;;;;;;;;;5065980;28;20011;-69
2021/05/12 04:30:17;;;;;;;;;;;;;;;;;;5061615;28;19924;-69
2021/05/12 04:32:44;;;;;;;;;;;;;;;;;;5068272;28;19971;-69
2021/05/12 04:35:12;;;;;;;;;;;;;;;;;;5068107;28;20023;-69
2021/05/12 04:37:39;;;;;;;;;;;;;;;;;;5067548;28;20388;-70
2021/05/12 04:40:05;;;;;;;;;;;;;;;;;;5064669;28;20023;-69
2021/05/12 04:42:31;;;;;;;;;;;;;;;;;;5067054;28;20308;-68
2021/05/12 04:44:58;;;;;;;;;;;;;;;;;;5068394;28;19931;-68
2021/05/12 04:47:24;;;;;;;;;;;;;;;;;;5068221;28;19928;-69
2021/05/12 04:49:51;;;;;;;;;;;;;;;;;;5068682;28;19925;-69
2021/05/12 04:52:17;;;;;;;;;;;;;;;;;;5065862;28;19924;-69
2021/05/12 04:54:44;;;;;;;;;;;;;;;;;;5062287;28;19968;-69
2021/05/12 04:57:10;;;;;;;;;;;;;;;;;;5067790;28;19936;-70
2021/05/12 04:59:37;;;;;;;;;;;;;;;;;;5067224;28;19925;-69
2021/05/12 05:02:05;;;;;;;;;;;;;;;;;;5065460;28;20264;-68
2021/05/12 05:04:31;;;;;;;;;;;;;;;;;;5070018;28;19980;-68
2021/05/12 05:06:58;;;;;;;;;;;;;;;;;;5066691;28;20468;-69
2021/05/12 05:09:24;;;;;;;;;;;;;;;;;;5065214;28;19931;-68
2021/05/12 05:11:51;;;;;;;;;;;;;;;;;;5067998;28;19928;-69
2021/05/12 05:14:17;;;;;;;;;;;;;;;;;;5067507;28;19943;-68
2021/05/12 05:16:44;;;;;;;;;;;;;;;;;;5072513;28;19932;-67
2021/05/12 05:19:10;;;;;;;;;;;;;;;;;;5072157;28;19924;-69
2021/05/12 05:21:37;;;;;;;;;;;;;;;;;;5073050;28;19931;-69
2021/05/12 05:24:03;;;;;;;;;;;;;;;;;;5071887;28;19925;-68
2021/05/12 05:26:30;;;;;;;;;;;;;;;;;;5070084;28;19968;-68
2021/05/12 05:28:56;;;;;;;;;;;;;;;;;;5073454;28;19963;-69
2021/05/12 05:31:23;;;;;;;;;;;;;;;;;;5071443;28;19959;-68
2021/05/12 05:33:49;;;;;;;;;;;;;;;;;;5065974;28;19924;-68
2021/05/12 05:36:16;;;;;;;;;;;;;;;;;;5062414;28;19931;-69
2021/05/12 05:38:42;;;;;;;;;;;;;;;;;;5068807;28;20079;-69
2021/05/12 05:41:09;;;;;;;;;;;;;;;;;;5066432;28;20415;-69
2021/05/12 05:43:35;;;;;;;;;;;;;;;;;;5057190;28;19929;-69
2021/05/12 05:46:02;;;;;;;;;;;;;;;;;;5070066;28;19978;-69
2021/05/12 05:48:28;;;;;;;;;;;;;;;;;;5070130;28;20272;-69
2021/05/12 05:50:55;;;;;;;;;;;;;;;;;;5066019;28;20502;-68
2021/05/12 05:53:21;;;;;;;;;;;;;;;;;;5069500;28;19924;-68
2021/05/12 05:55:48;;;;;;;;;;;;;;;;;;5062987;28;19946;-68
2021/05/12 05:58:15;;;;;;;;;;;;;;;;;;5070126;28;19931;-69
2021/05/12 06:00:43;;;;;;;;;;;;;;;;;;5070644;28;19978;-69
2021/05/12 06:03:10;;;;;;;;;;;;;;;;;;5070096;28;19977;-69
2021/05/12 06:05:36;;;;;;;;;;;;;;;;;;5063297;28;20729;-69
2021/05/12 06:08:03;;;;;;;;;;;;;;;;;;5065840;28;19974;-68
2021/05/12 06:10:29;;;;;;;;;;;;;;;;;;5057778;28;19932;-69
2021/05/12 06:12:56;;;;;;;;;;;;;;;;;;5065214;28;19932;-69
2021/05/12 06:15:22;;;;;;;;;;;;;;;;;;5062265;28;19928;-69
2021/05/12 06:17:49;;;;;;;;;;;;;;;;;;5061758;28;19935;-69
2021/05/12 06:20:15;;;;;;;;;;;;;;;;;;5064210;28;19931;-69
2021/05/12 06:22:42;;;;;;;;;;;;;;;;;;5064479;28;20031;-69
2021/05/12 06:25:10;;;;;;;;;;;;;;;;;;5066291;28;20401;-69
2021/05/12 06:27:36;;;;;;;;;;;;;;;;;;5068026;28;20333;-69
2021/05/12 06:30:03;;;;;;;;;;;;;;;;;;5067730;28;19982;-69
2021/05/12 06:32:29;;;;;;;;;;;;;;;;;;5068932;28;20380;-69
2021/05/12 06:34:56;;;;;;;;;;;;;;;;;;5068259;28;20066;-69
2021/05/12 06:37:22;;;;;;;;;;;;;;;;;;5062877;28;20396;-68
2021/05/12 06:39:50;;;;;;;;;;;;;;;;;;5065236;28;20027;-68
2021/05/12 06:42:16;;;;;;;;;;;;;;;;;;5079098;22;21417;-70
2021/05/12 06:44:43;;;;;;;;;;;;;;;;;;5042146;28;20406;-69
2021/05/12 06:47:09;;;;;;;;;;;;;;;;;;5047351;28;20019;-69
2021/05/12 06:49:36;;;;;;;;;;;;;;;;;;5048088;28;20411;-69
2021/05/12 06:52:02;;;;;;;;;;;;;;;;;;5048313;28;19924;-71
2021/05/12 06:54:29;;;;;;;;;;;;;;;;;;5047248;28;20278;-71
2021/05/12 06:56:55;;;;;;;;;;;;;;;;;;5044237;28;19925;-71
2021/05/12 06:59:22;;;;;;;;;;;;;;;;;;5046860;28;19929;-71
2021/05/12 07:01:48;;;;;;;;;;;;;;;;;;5044478;28;20313;-71
2021/05/12 07:04:15;;;;;;;;;;;;;;;;;;5035333;28;19928;-69
2021/05/12 07:06:41;;;;;;;;;;;;;;;;;;5048925;28;19973;-70
2021/05/12 07:09:08;;;;;;;;;;;;;;;;;;5050164;28;20564;-69
2021/05/12 07:11:34;;;;;;;;;;;;;;;;;;5052214;28;20043;-72
2021/05/12 07:14:03;;;;;;;;;;;;;;;;;;5051577;28;19956;-71
2021/05/12 07:16:29;;;;;;;;;;;;;;;;;;5058695;28;20649;-72
2021/05/12 07:18:56;;;;;;;;;;;;;;;;;;5056790;28;19931;-67
2021/05/12 07:21:22;;;;;;;;;;;;;;;;;;5053168;28;19976;-70
2021/05/12 07:23:49;;;;;;;;;;;;;;;;;;5058144;28;19931;-69
2021/05/12 07:26:15;;;;;;;;;;;;;;;;;;5053655;28;19960;-67
2021/05/12 07:28:42;;;;;;;;;;;;;;;;;;5042807;28;19925;-66
2021/05/12 07:31:09;;;;;;;;;;;;;;;;;;5044753;28;20406;-66
2021/05/12 07:33:35;;;;;;;;;;;;;;;;;;5045681;28;19928;-66
2021/05/12 07:36:02;;;;;;;;;;;;;;;;;;5044193;28;19933;-66
2021/05/12 07:38:28;;;;;;;;;;;;;;;;;;5046196;28;19925;-66
2021/05/12 07:40:58;;;;;;;;;;;;;;;;;;5047192;28;20303;-67
2021/05/12 07:43:24;;;;;;;;;;;;;;;;;;5046103;28;19929;-66
2021/05/12 07:45:51;;;;;;;;;;;;;;;;;;5040799;28;20355;-66
2021/05/12 07:48:17;;;;;;;;;;;;;;;;;;5044010;28;20361;-66
2021/05/12 07:50:45;;;;;;;;;;;;;;;;;;5045486;28;19946;-66
2021/05/12 07:53:11;;;;;;;;;;;;;;;;;;5047522;28;19929;-66
2021/05/12 07:55:38;;;;;;;;;;;;;;;;;;5039411;28;19971;-67
2021/05/12 07:58:04;;;;;;;;;;;;;;;;;;5044696;28;20359;-66
2021/05/12 08:00:32;;;;;;;;;;;;;;;;;;5043159;28;19932;-67
2021/05/12 08:02:59;;;;;;;;;;;;;;;;;;5046175;28;19925;-67
2021/05/12 08:05:25;;;;;;;;;;;;;;;;;;5043455;28;20304;-67
2021/05/12 08:07:52;;;;;;;;;;;;;;;;;;5047397;28;20460;-67
2021/05/12 08:10:18;;;;;;;;;;;;;;;;;;5047571;28;19932;-66
2021/05/12 08:12:45;;;;;;;;;;;;;;;;;;5046848;28;20008;-66
2021/05/12 08:15:11;;;;;;;;;;;;;;;;;;5042641;28;20078;-67
2021/05/12 08:17:38;;;;;;;;;;;;;;;;;;5047485;28;19924;-66
2021/05/12 08:20:04;;;;;;;;;;;;;;;;;;5047531;28;19939;-66
2021/05/12 08:22:31;;;;;;;;;;;;;;;;;;5047172;28;20024;-67
2021/05/12 08:24:57;;;;;;;;;;;;;;;;;;5042904;28;20304;-67
2021/05/12 08:27:24;;;;;;;;;;;;;;;;;;5046190;28;19924;-67
2021/05/12 08:29:52;;;;;;;;;;;;;;;;;;5047695;28;19928;-67
2021/05/12 08:32:18;;;;;;;;;;;;;;;;;;5046484;28;19931;-67
2021/05/12 08:34:45;;;;;;;;;;;;;;;;;;5041169;28;19933;-66
2021/05/12 08:37:11;;;;;;;;;;;;;;;;;;5046899;28;20023;-67
2021/05/12 08:39:37;;;;;;;;;;;;;;;;;;5046326;28;19929;-67
2021/05/12 08:42:04;;;;;;;;;;;;;;;;;;5045238;28;19925;-67
2021/05/12 08:44:30;;;;;;;;;;;;;;;;;;5039817;28;20051;-67
2021/05/12 08:46:57;;;;;;;;;;;;;;;;;;5038698;28;20020;-67
2021/05/12 08:49:23;;;;;;;;;;;;;;;;;;5047380;28;19932;-67
2021/05/12 08:51:50;;;;;;;;;;;;;;;;;;5041993;28;19986;-67
2021/05/12 08:54:16;;;;;;;;;;;;;;;;;;5045154;28;19989;-67
2021/05/12 08:56:43;;;;;;;;;;;;;;;;;;5045057;28;19929;-66
2021/05/12 08:59:09;;;;;;;;;;;;;;;;;;5047525;28;20471;-66
2021/05/12 09:01:36;;;;;;;;;;;;;;;;;;5042193;28;20022;-66
2021/05/12 09:04:02;;;;;;;;;;;;;;;;;;5043155;28;19972;-65
2021/05/12 09:06:29;;;;;;;;;;;;;;;;;;5044498;28;19928;-66
2021/05/12 09:08:57;;;;;;;;;;;;;;;;;;5049563;28;19932;-65
2021/05/12 09:11:23;;;;;;;;;;;;;;;;;;5043966;28;19932;-68
2021/05/12 09:13:50;;;;;;;;;;;;;;;;;;5044052;28;19931;-68
2021/05/12 09:16:16;;;;;;;;;;;;;;;;;;5042045;28;20181;-68
2021/05/12 09:18:43;;;;;;;;;;;;;;;;;;5044035;28;20013;-69
2021/05/12 09:21:09;;;;;;;;;;;;;;;;;;5045396;28;20029;-69
2021/05/12 09:23:36;;;;;;;;;;;;;;;;;;5047178;28;20304;-70
2021/05/12 09:26:02;;;;;;;;;;;;;;;;;;5044558;28;20024;-70
2021/05/12 09:28:29;;;;;;;;;;;;;;;;;;5044095;28;19951;-69
2021/05/12 09:30:55;;;;;;;;;;;;;;;;;;5043414;28;19929;-71
2021/05/12 09:33:22;;;;;;;;;;;;;;;;;;5039764;28;19929;-68
2021/05/12 09:35:48;;;;;;;;;;;;;;;;;;5042948;28;20011;-69
2021/05/12 09:38:15;;;;;;;;;;;;;;;;;;5043973;28;20020;-68
2021/05/12 09:40:41;;;;;;;;;;;;;;;;;;5042448;28;20075;-68
2021/05/12 09:43:08;;;;;;;;;;;;;;;;;;5042224;28;20021;-68
2021/05/12 09:45:38;;;;;;;;;;;;;;;;;;5042402;28;20101;-69
2021/05/12 09:48:04;;;;;;;;;;;;;;;;;;5046152;28;19978;-68
2021/05/12 09:50:32;;;;;;;;;;;;;;;;;;5039060;28;20510;-69
2021/05/12 09:52:59;;;;;;;;;;;;;;;;;;5041212;28;20012;-68
2021/05/12 09:55:25;;;;;;;;;;;;;;;;;;5041107;28;20045;-68
2021/05/12 09:57:52;;;;;;;;;;;;;;;;;;5042236;28;19925;-69
2021/05/12 10:00:18;;;;;;;;;;;;;;;;;;5048082;28;20003;-69
2021/05/12 10:02:45;;;;;;;;;;;;;;;;;;5048869;28;19929;-69
2021/05/12 10:05:11;;;;;;;;;;;;;;;;;;5041773;28;19935;-69
2021/05/12 10:07:38;;;;;;;;;;;;;;;;;;5043917;28;19947;-68
2021/05/12 10:10:04;;;;;;;;;;;;;;;;;;5042225;28;19925;-67
2021/05/12 10:12:31;;;;;;;;;;;;;;;;;;5040613;28;19928;-68
2021/05/12 10:15:01;;;;;;;;;;;;;;;;;;5042684;28;19931;-67
2021/05/12 10:17:28;;;;;;;;;;;;;;;;;;5040428;28;20369;-68
2021/05/12 10:19:54;;;;;;;;;;;;;;;;;;5040403;28;20344;-66
2021/05/12 10:22:21;;;;;;;;;;;;;;;;;;5039569;28;19929;-68
2021/05/12 10:24:47;;;;;;;;;;;;;;;;;;5041181;28;19929;-69
2021/05/12 10:27:14;;;;;;;;;;;;;;;;;;5039843;28;19956;-68
2021/05/12 10:29:40;;;;;;;;;;;;;;;;;;5044779;28;19986;-68
2021/05/12 10:32:07;;;;;;;;;;;;;;;;;;5043251;28;20524;-68
2021/05/12 10:34:33;;;;;;;;;;;;;;;;;;5037600;28;19932;-68
2021/05/12 10:36:59;;;;;;;;;;;;;;;;;;5039447;28;19935;-70
2021/05/12 10:39:26;;;;;;;;;;;;;;;;;;5044111;28;19929;-69
2021/05/12 10:41:58;;;;;;;;;;;;;;;;;;5040834;28;20308;-68
2021/05/12 10:44:25;;;;;;;;;;;;;;;;;;5039817;28;19933;-67
2021/05/12 10:46:51;;;;;;;;;;;;;;;;;;5041233;28;20332;-66
2021/05/12 10:49:18;;;;;;;;;;;;;;;;;;5040790;28;19932;-67
2021/05/12 10:51:44;;;;;;;;;;;;;;;;;;5043031;28;19925;-66
2021/05/12 10:54:11;;;;;;;;;;;;;;;;;;5042222;28;19934;-66
2021/05/12 10:56:38;;;;;;;;;;;;;;;;;;5043131;28;19932;-67
2021/05/12 10:59:04;;;;;;;;;;;;;;;;;;5038314;28;20012;-67
2021/05/12 11:01:31;;;;;;;;;;;;;;;;;;5041289;28;19925;-66
2021/05/12 11:03:57;;;;;;;;;;;;;;;;;;5042714;28;19925;-66
2021/05/12 11:06:24;;;;;;;;;;;;;;;;;;5039607;28;19931;-67
2021/05/12 11:08:50;;;;;;;;;;;;;;;;;;5041099;28;19925;-67
2021/05/12 11:11:17;;;;;;;;;;;;;;;;;;5040475;28;20293;-67
2021/05/12 11:13:44;;;;;;;;;;;;;;;;;;5044704;28;19925;-68
2021/05/12 11:16:10;;;;;;;;;;;;;;;;;;5042295;28;20300;-68
2021/05/12 11:18:37;;;;;;;;;;;;;;;;;;5039667;28;19935;-67
2021/05/12 11:21:03;;;;;;;;;;;;;;;;;;5044789;28;19967;-68
2021/05/12 11:23:30;;;;;;;;;;;;;;;;;;5042884;28;19992;-67
2021/05/12 11:25:56;;;;;;;;;;;;;;;;;;5042602;28;20459;-68
2021/05/12 11:31:36;;;;;;;;;;;;;;;;;;5038159;28;19952;-67
2021/05/12 11:34:03;;;;;;;;;;;;;;;;;;5042955;28;19936;-68
2021/05/12 11:36:33;;;;;;;;;;;;;;;;;;5036543;28;19933;-68
2021/05/12 11:38:59;;;;;;;;;;;;;;;;;;5041576;28;19925;-68
2021/05/12 11:41:26;;;;;;;;;;;;;;;;;;5040988;28;20016;-67
2021/05/12 11:43:52;;;;;;;;;;;;;;;;;;5037817;28;20024;-67
2021/05/12 11:46:19;;;;;;;;;;;;;;;;;;5040747;28;20011;-67
2021/05/12 11:48:46;;;;;;;;;;;;;;;;;;5035904;28;19948;-67
2021/05/12 11:51:12;;;;;;;;;;;;;;;;;;5040883;28;20444;-67
2021/05/12 11:53:39;;;;;;;;;;;;;;;;;;5044077;28;19929;-67
2021/05/12 11:56:05;;;;;;;;;;;;;;;;;;5039103;28;20342;-67
2021/05/12 11:58:32;;;;;;;;;;;;;;;;;;5042045;28;20404;-67
2021/05/12 12:00:58;;;;;;;;;;;;;;;;;;5046569;28;19929;-67
2021/05/12 12:03:26;;;;;;;;;;;;;;;;;;5044347;28;20335;-67
2021/05/12 12:06:01;;;;;;;;;;;;;;;;;;5043013;28;20270;-68
2021/05/12 12:08:27;;;;;;;;;;;;;;;;;;5045183;28;20385;-67
2021/05/12 12:10:54;;;;;;;;;;;;;;;;;;5044733;28;19924;-68
2021/05/12 12:13:20;;;;;;;;;;;;;;;;;;5047985;28;19932;-67
2021/05/12 12:15:47;;;;;;;;;;;;;;;;;;5036477;28;20020;-68
2021/05/12 12:18:13;;;;;;;;;;;;;;;;;;5040930;28;20012;-67
2021/05/12 12:20:41;;;;;;;;;;;;;;;;;;5045096;28;20388;-67
2021/05/12 12:23:07;;;;;;;;;;;;;;;;;;5047742;28;19924;-67
2021/05/12 12:25:42;;;;;;;;;;;;;;;;;;5043872;28;20060;-67
2021/05/12 12:28:08;;;;;;;;;;;;;;;;;;5040978;28;20352;-67
2021/05/12 12:30:35;;;;;;;;;;;;;;;;;;5046347;28;19928;-67
2021/05/12 12:33:02;;;;;;;;;;;;;;;;;;5047024;28;19925;-68
2021/05/12 12:35:28;;;;;;;;;;;;;;;;;;5038368;28;19929;-67
2021/05/12 12:37:55;;;;;;;;;;;;;;;;;;5048008;28;19925;-66
2021/05/12 12:40:23;;;;;;;;;;;;;;;;;;5043443;28;19968;-67
2021/05/12 12:42:49;;;;;;;;;;;;;;;;;;5048626;28;20023;-66
2021/05/12 12:45:16;;;;;;;;;;;;;;;;;;5040392;28;19925;-66
2021/05/12 12:47:42;;;;;;;;;;;;;;;;;;5042483;28;19929;-66
2021/05/12 12:50:09;;;;;;;;;;;;;;;;;;5041896;28;19982;-66
2021/05/12 12:52:37;;;;;;;;;;;;;;;;;;5053580;28;19964;-67
2021/05/12 12:55:04;;;;;;;;;;;;;;;;;;5047416;28;19924;-68
2021/05/12 12:57:30;;;;;;;;;;;;;;;;;;5046159;28;19931;-67
2021/05/12 12:59:57;;;;;;;;;;;;;;;;;;5047690;28;19974;-67
2021/05/12 13:02:23;;;;;;;;;;;;;;;;;;5041063;28;20236;-67
2021/05/12 13:04:50;;;;;;;;;;;;;;;;;;5040696;28;19929;-67
2021/05/12 13:07:18;;;;;;;;;;;;;;;;;;5044980;28;20315;-67
2021/05/12 13:09:45;;;;;;;;;;;;;;;;;;5047775;28;19928;-67
2021/05/12 13:12:12;;;;;;;;;;;;;;;;;;5045346;28;19925;-67
2021/05/12 13:14:38;;;;;;;;;;;;;;;;;;5042551;28;20470;-68
2021/05/12 13:17:05;;;;;;;;;;;;;;;;;;5043742;28;19972;-68
2021/05/12 13:19:31;;;;;;;;;;;;;;;;;;5046600;28;20311;-66
2021/05/12 13:21:58;;;;;;;;;;;;;;;;;;5047138;28;19925;-67
2021/05/12 13:24:25;;;;;;;;;;;;;;;;;;5030698;28;19934;-66
2021/05/12 13:26:51;;;;;;;;;;;;;;;;;;5042917;28;19928;-68
2021/05/12 13:29:19;;;;;;;;;;;;;;;;;;5043272;28;20082;-66
2021/05/12 13:31:47;;;;;;;;;;;;;;;;;;5045989;28;19932;-66
2021/05/12 13:34:16;;;;;;;;;;;;;;;;;;5045337;28;19924;-66
2021/05/12 13:36:43;;;;;;;;;;;;;;;;;;5036479;28;19988;-66
2021/05/12 13:39:11;;;;;;;;;;;;;;;;;;5047424;28;20405;-66
2021/05/12 13:41:38;;;;;;;;;;;;;;;;;;5041431;28;19975;-66
2021/05/12 13:44:04;;;;;;;;;;;;;;;;;;5034913;28;20041;-67
2021/05/12 13:46:31;;;;;;;;;;;;;;;;;;5037906;28;20059;-67
2021/05/12 13:48:57;;;;;;;;;;;;;;;;;;5043847;28;19925;-67
2021/05/12 13:51:26;;;;;;;;;;;;;;;;;;5039796;28;19960;-67
2021/05/12 13:54:07;;;;;;;;;;;;;;;;;;5046731;28;19925;-66
2021/05/12 13:56:37;;;;;;;;;;;;;;;;;;5043135;28;19937;-66
2021/05/12 13:59:28;;;;;;;;;;;;;;;;;;5047853;28;20585;-67
2021/05/12 14:02:01;;;;;;;;;;;;;;;;;;5046532;28;20388;-66
2021/05/12 14:04:28;;;;;;;;;;;;;;;;;;5045611;28;19936;-67
2021/05/12 14:06:55;;;;;;;;;;;;;;;;;;5047501;28;19924;-67
2021/05/12 14:09:23;;;;;;;;;;;;;;;;;;5044424;28;19962;-67
2021/05/12 14:11:53;;;;;;;;;;;;;;;;;;5045931;28;19968;-67
2021/05/12 14:14:30;;;;;;;;;;;;;;;;;;5042764;28;19925;-66
2021/05/12 14:17:05;;;;;;;;;;;;;;;;;;5044539;28;19933;-67
2021/05/12 14:19:32;;;;;;;;;;;;;;;;;;5047837;28;19929;-67
2021/05/12 14:21:58;;;;;;;;;;;;;;;;;;5042075;28;19931;-66
2021/05/12 14:24:27;;;;;;;;;;;;;;;;;;5044005;28;19933;-66
2021/05/12 14:26:54;;;;;;;;;;;;;;;;;;5044194;28;19963;-66
2021/05/12 14:29:30;;;;;;;;;;;;;;;;;;5049181;28;20305;-67
2021/05/12 14:31:57;;;;;;;;;;;;;;;;;;5048179;28;19937;-67
2021/05/12 14:34:23;;;;;;;;;;;;;;;;;;5041611;28;19932;-67
2021/05/12 14:36:50;;;;;;;;;;;;;;;;;;5043240;28;19935;-67
2021/05/12 14:39:17;;;;;;;;;;;;;;;;;;5044333;28;19986;-66
2021/05/12 14:41:43;;;;;;;;;;;;;;;;;;5039473;28;20028;-67
2021/05/12 14:44:10;;;;;;;;;;;;;;;;;;5039261;28;20948;-67
2021/05/12 14:46:36;;;;;;;;;;;;;;;;;;5043779;28;19929;-65
2021/05/12 14:49:04;;;;;;;;;;;;;;;;;;5041527;28;19925;-66
2021/05/12 14:51:33;;;;;;;;;;;;;;;;;;5039366;28;19944;-66
2021/05/12 14:54:20;;;;;;;;;;;;;;;;;;5044654;28;19924;-64
2021/05/12 14:56:49;;;;;;;;;;;;;;;;;;5042017;28;19939;-66
2021/05/12 15:02:35;;;;;;;;;;;;;;;;;;5043233;28;20343;-67
2021/05/12 15:07:50;;;;;;;;;;;;;;;;;;5021859;28;19924;-66
2021/05/12 15:10:17;;;;;;;;;;;;;;;;;;5041142;28;19929;-68
2021/05/12 15:12:43;;;;;;;;;;;;;;;;;;5043738;28;20473;-69
2021/05/12 15:15:10;;;;;;;;;;;;;;;;;;5040119;28;20281;-68
2021/05/12 15:17:36;;;;;;;;;;;;;;;;;;5043302;28;19932;-68
2021/05/12 15:20:03;;;;;;;;;;;;;;;;;;5040762;28;19967;-68
2021/05/12 15:22:29;;;;;;;;;;;;;;;;;;5046231;28;20373;-69
2021/05/12 15:24:56;;;;;;;;;;;;;;;;;;5047031;28;20277;-68
2021/05/12 15:27:22;;;;;;;;;;;;;;;;;;5043071;28;19925;-69
2021/05/12 15:29:49;;;;;;;;;;;;;;;;;;5041722;28;19929;-70
2021/05/12 15:32:15;;;;;;;;;;;;;;;;;;5042843;28;20292;-68
2021/05/12 15:34:42;;;;;;;;;;;;;;;;;;5037891;28;19925;-68
2021/05/12 15:37:08;;;;;;;;;;;;;;;;;;5041306;28;19986;-68
2021/05/12 15:39:35;;;;;;;;;;;;;;;;;;5040358;28;20027;-69
2021/05/12 15:42:01;;;;;;;;;;;;;;;;;;5039953;28;19925;-69
2021/05/12 15:44:27;;;;;;;;;;;;;;;;;;5044387;28;20301;-69
2021/05/12 15:46:54;;;;;;;;;;;;;;;;;;5043658;28;19929;-69
2021/05/12 15:49:20;;;;;;;;;;;;;;;;;;5045308;28;19928;-69
2021/05/12 15:51:47;;;;;;;;;;;;;;;;;;5044070;28;19939;-69
2021/05/12 15:54:13;;;;;;;;;;;;;;;;;;5039638;28;19929;-68
2021/05/12 15:56:40;;;;;;;;;;;;;;;;;;5039731;28;20286;-69
2021/05/12 15:59:06;;;;;;;;;;;;;;;;;;5040492;28;20278;-69
2021/05/12 16:01:33;;;;;;;;;;;;;;;;;;5042854;28;19925;-68
2021/05/12 16:03:59;;;;;;;;;;;;;;;;;;5041638;28;19951;-69
2021/05/12 16:06:26;;;;;;;;;;;;;;;;;;5038297;28;19998;-69
2021/05/12 16:08:53;;;;;;;;;;;;;;;;;;5037948;28;19935;-69
2021/05/12 16:11:21;;;;;;;;;;;;;;;;;;5041217;28;19932;-69
2021/05/12 16:13:48;;;;;;;;;;;;;;;;;;5040479;28;19925;-69
2021/05/12 16:16:18;;;;;;;;;;;;;;;;;;5042842;28;19960;-70
2021/05/12 16:18:44;;;;;;;;;;;;;;;;;;5041553;28;20023;-69
2021/05/12 16:21:10;;;;;;;;;;;;;;;;;;5039833;28;19931;-69
2021/05/12 16:23:37;;;;;;;;;;;;;;;;;;5038939;28;19936;-68
2021/05/12 16:26:04;;;;;;;;;;;;;;;;;;5041227;28;20369;-69
2021/05/12 16:28:31;;;;;;;;;;;;;;;;;;5039507;28;19928;-68
2021/05/12 16:30:57;;;;;;;;;;;;;;;;;;5039069;28;19991;-68
2021/05/12 16:33:26;;;;;;;;;;;;;;;;;;5041247;28;19931;-68
2021/05/12 16:35:52;;;;;;;;;;;;;;;;;;5041017;28;19936;-70
2021/05/12 16:38:19;;;;;;;;;;;;;;;;;;5038989;28;19932;-69
2021/05/12 16:40:45;;;;;;;;;;;;;;;;;;5042052;28;19925;-69
2021/05/12 16:43:11;;;;;;;;;;;;;;;;;;5043776;28;19925;-69
2021/05/12 16:45:38;;;;;;;;;;;;;;;;;;5038879;28;19982;-69
2021/05/12 16:48:06;;;;;;;;;;;;;;;;;;5041719;28;20401;-70
2021/05/12 16:50:33;;;;;;;;;;;;;;;;;;5041748;28;19925;-69
2021/05/12 16:52:59;;;;;;;;;;;;;;;;;;5039358;28;20211;-64